ROMMA est une association bénévole à but non lucratif. Votre soutien est indispensable : ADHERER à ROMMA ou FAIRE un DON

Engins - (38, Isère)

Vercors (906 m)   Longitude: 05° 37' E   Latitude: 45° 11' N Station partenaire n°139
 

Détail journalier du     <<     >>

Température Precipitation Humidité Vent Dir Rafale Dir. rafale Ensol.
Heure (°C) (mm) (%) (km/h) (km/h) (min)
01:00 8.50.68611ENE42N0
02:00 7.018613N53NNO0
03:00 6.90.49211NNO39N0
04:00 7.00.29111N31ENE0
05:00 6.70899N32N0
06:00 6.608910N34N0
07:00 6.408812N34NNO0
08:00 6.608816N34N0
09:00 8.208315N31NO55
10:00 9.50799N29NNO35
11:00 10.907610NNE32NE50
12:00 10.907213N39ENE60
13:00 11.407115N40NE60
14:00 11.507016N37N45
15:00 12.406818N40NNO60
16:00 11.707216N37N35
17:00 10.707914N35NNO0
18:00 10.208110N23NNO0
19:00 9.807915NNO31NNO0
20:00 8.80847N24NNO0
21:00 8.90862OSO10S0
22:00 8.30882NNO6ONO0
23:00 7.60874SSO8SSO0
minuit 7.40903OSO10OSO0

Graphique du 07-10-2019

 

Serveur OMMA